»·PEaware :: N668MP KFUL-KMYF

N668MP :: KFUL-KMYF

FLIGHT INFORMATION

Flight Status: Arrived
Operator: Privately registered:
United States
More flights under this callsign
Pilot: Skye D. (10623)
Aircraft: BRITISH AERO BAe-3200 JETSTREAM SUPER 31
(JS32)
More flights by this aircraft type
Origin: KFUL Fullerton Mun
United States
Destination: KMYF Montgomery
United States
More flights between these airports :: More routes between these airports
Route: +V25 PACIF V208 LAX118R CARDI MZB320R MZB
File this flight plan on PilotEdge
Remarks: CSTN19
Altitude:
(Current/Filed)
9,000ft
Speed:
(Current/Filed)
240kts
Departed: 15-Feb-18 03:23 PM
Arrived: 15-Feb-18 03:59 PM
Distance/Time
Traveled:
76nm/0:36
Distance/Time
To Go:
Arrived

Flight Plot

Page will automatically refresh every two minutes.


Map Options




Map Legend


Flown Route
Filed Route
Departure Airport
Arrival Airport
Navaid (VOR, NDB)
Fix

Horizontal Profiles

Position Reports

Time Latitude Longitude Heading Altitude Ground
Speed
15-Feb-18 15:14 33.871302 -117.978947 74 99ft 0kts
15-Feb-18 15:15 33.871302 -117.978947 74 99ft 0kts
15-Feb-18 15:16 33.871302 -117.978947 74 99ft 0kts
15-Feb-18 15:17 33.871302 -117.978947 74 99ft 0kts
15-Feb-18 15:18 33.871302 -117.978947 74 99ft 0kts
15-Feb-18 15:19 33.871302 -117.978947 74 99ft 0kts
15-Feb-18 15:20 33.871302 -117.978947 74 99ft 0kts
15-Feb-18 15:21 33.871302 -117.978947 74 99ft 0kts
15-Feb-18 15:22 33.871309 -117.978915 74 99ft 0kts
15-Feb-18 15:23 33.871633 -117.978901 342 99ft 0kts
15-Feb-18 15:24 33.871633 -117.978901 342 99ft 0kts
15-Feb-18 15:25 33.871633 -117.978901 342 99ft 0kts
15-Feb-18 15:26 33.871633 -117.978901 342 99ft 0kts
15-Feb-18 15:27 33.872136 -117.976956 76 99ft 15kts
15-Feb-18 15:28 33.872551 -117.974857 68 99ft 4kts
15-Feb-18 15:29 33.872956 -117.975051 244 99ft 3kts
15-Feb-18 15:30 33.869337 -117.999679 253 865ft 116kts
15-Feb-18 15:31 33.838836 -117.992884 135 2154ft 178kts
15-Feb-18 15:32 33.807377 -117.946989 129 3609ft 205kts
15-Feb-18 15:33 33.775421 -117.897039 129 5550ft 201kts
15-Feb-18 15:34 33.735491 -117.850871 140 6995ft 214kts
15-Feb-18 15:35 33.689873 -117.803302 140 7018ft 221kts
15-Feb-18 15:36 33.634386 -117.778452 180 7987ft 226kts
15-Feb-18 15:37 33.571064 -117.774236 176 9004ft 238kts
15-Feb-18 15:38 33.509079 -117.740843 144 9024ft 264kts
15-Feb-18 15:39 33.448123 -117.688554 144 9018ft 272kts
15-Feb-18 15:40 33.387272 -117.636340 144 9036ft 270kts
15-Feb-18 15:41 33.326268 -117.584070 144 9037ft 270kts
15-Feb-18 15:42 33.265175 -117.531821 144 9037ft 270kts
15-Feb-18 15:43 33.205313 -117.480658 145 8692ft 267kts
15-Feb-18 15:44 33.147139 -117.431029 145 7798ft 264kts
15-Feb-18 15:45 33.084770 -117.393200 155 7018ft 254kts
15-Feb-18 15:46 33.025098 -117.357699 132 6984ft 255kts
15-Feb-18 15:47 33.005886 -117.283139 102 6999ft 255kts
15-Feb-18 15:48 32.989979 -117.206058 102 6993ft 234kts
15-Feb-18 15:49 32.975048 -117.134971 102 6996ft 217kts
15-Feb-18 15:50 32.961313 -117.067528 102 7002ft 212kts
15-Feb-18 15:51 32.947602 -116.999282 102 6995ft 217kts
15-Feb-18 15:52 32.933669 -116.930485 102 6983ft 220kts
15-Feb-18 15:53 32.919841 -116.861803 102 6983ft 221kts
15-Feb-18 15:54 32.904280 -116.792237 127 6968ft 222kts
15-Feb-18 15:55 32.848677 -116.786785 189 6075ft 213kts
15-Feb-18 15:56 32.793767 -116.794195 189 5760ft 190kts
15-Feb-18 15:57 32.750709 -116.799741 189 5003ft 185kts
15-Feb-18 15:58 32.705093 -116.837959 257 4984ft 198kts
15-Feb-18 15:59 32.715661 -116.885181 295 4976ft 183kts
15-Feb-18 16:00 32.735605 -116.935500 296 4163ft 180kts
15-Feb-18 16:01 32.758589 -116.993600 295 3072ft 153kts
15-Feb-18 16:02 32.771996 -117.027554 295 2381ft 131kts
15-Feb-18 16:03 32.785625 -117.062110 296 1768ft 113kts
15-Feb-18 16:04 32.799247 -117.095995 294 1145ft 110kts
15-Feb-18 16:05 32.811902 -117.128758 295 557ft 102kts
15-Feb-18 16:06 32.817852 -117.143831 293 429ft 14kts
15-Feb-18 16:07 32.817400 -117.145027 206 429ft 0kts
15-Feb-18 16:08 32.815750 -117.145938 202 429ft 9kts
15-Feb-18 16:09 32.815493 -117.146061 204 429ft 0kts
15-Feb-18 16:10 32.815493 -117.146061 204 429ft 0kts
15-Feb-18 16:11 32.814151 -117.145522 148 429ft 10kts
15-Feb-18 16:12 32.814971 -117.142362 118 429ft 12kts
15-Feb-18 16:13 32.813896 -117.141003 279 429ft 6kts
15-Feb-18 16:14 32.813959 -117.141204 297 429ft 0kts
15-Feb-18 16:15 32.813959 -117.141204 297 429ft 0kts

Navigation Log

Ident Type
Flight plan parsing failed, navigation log unavailable